Latest Weather Observations for Maryborough

IDQ60801

Issued at 10:35 pm EST Wednesday 30 July 2014 (issued every 30 minutes, with the page automatically refreshed every 10 minutes)

About weather observations | Map of weather stations | Latest weather observations for QLD | Other Formats
Station Details ID: 040126 Name: MARYBOROUGH Lat: -25.52 Lon: 152.72 Height: 10.28 m
Data from the previous 72 hours. | See also: Recent months at Maryborough
Date/Time
EST
Temp
°C
App
Temp
°C
Dew
Point
Rel
Hum
%
Delta-T
°C
Wind Press
QNH
hPa
Press
MSL
hPa
Rain
since 9 am
mm
Dir
 
Spd
km/h
Gust
km/h
Spd
kts
Gust
kts
30/10:30pm 11.3 10.7 10.4 94 0.5 NNE 4 6 2 3 1021.3 - 0.0
30/10:00pm 11.1 9.9 9.7 91 0.7 NNE 6 7 3 4 1021.4 - 0.0
30/09:30pm 11.5 10.4 10.1 91 0.7 NNE 6 7 3 4 1021.4 - 0.0
30/09:00pm 12.6 11.9 11.5 93 0.6 NNE 6 7 3 4 1021.4 1021.4 0.0
30/08:30pm 12.8 11.9 10.7 87 1.1 NNE 6 7 3 4 1021.2 - 0.0
30/08:00pm 13.7 12.9 11.6 87 1.1 NNE 7 9 4 5 1021.1 - 0.0
30/07:30pm 15.7 14.8 12.5 81 1.8 NNE 9 13 5 7 1020.9 - 0.0
30/07:00pm 15.4 14.3 10.8 74 2.4 NNE 7 9 4 5 1020.7 - 0.0
30/06:30pm 17.1 15.8 11.4 69 3.1 NNE 9 13 5 7 1020.4 - 0.0
30/06:00pm 17.9 16.5 10.8 63 3.8 NNE 9 15 5 8 1020.1 1020.1 0.0
30/05:30pm 18.9 16.9 10.2 57 4.7 N 11 17 6 9 1019.6 - 0.0
30/05:00pm 19.8 17.2 9.4 51 5.5 N 13 17 7 9 1019.3 - 0.0
30/04:30pm 21.6 18.9 8.8 44 6.8 N 13 20 7 11 1019.2 - 0.0
30/04:00pm 22.6 18.4 7.6 38 7.8 N 19 30 10 16 1018.9 - 0.0
30/03:30pm 23.5 19.6 9.5 41 7.6 N 20 28 11 15 1018.5 - 0.0
30/03:00pm 24.1 20.4 10.0 41 7.7 N 20 28 11 15 1018.6 1018.6 0.0
30/02:30pm 25.1 22.1 10.6 40 8.1 N 17 24 9 13 1018.8 - 0.0
30/02:00pm 25.1 22.1 9.4 37 8.6 N 15 22 8 12 1019.1 - 0.0
30/01:30pm 24.6 21.1 7.3 33 9.1 NNW 15 22 8 12 1019.6 - 0.0
30/01:00pm 24.8 21.9 8.3 35 8.8 N 13 20 7 11 1020.1 - 0.0
30/12:30pm 24.4 21.9 8.4 36 8.5 WNW 11 20 6 11 1020.7 - 0.0
30/12:00pm 24.2 21.8 10.1 41 7.7 NNW 13 22 7 12 1021.5 1021.5 0.0
30/11:30am 23.2 20.4 9.9 43 7.3 NW 15 22 8 12 1022.2 - 0.0
30/11:00am 22.6 18.9 9.4 43 7.1 NW 19 24 10 13 1022.7 - 0.0
30/10:30am 22.6 19.6 12.0 51 6.0 NNW 19 26 10 14 1023.1 - 0.0
30/10:00am 20.1 18.5 12.8 63 4.1 NNW 13 19 7 10 1023.6 - 0.0
30/09:30am 16.7 16.2 12.8 78 2.2 N 7 9 4 5 1023.9 - 0.0
30/09:00am 15.2 15.2 13.6 90 0.9 NNE 6 11 3 6 1023.9 1023.9 0.0
30/08:30am 13.0 13.7 12.1 94 0.5 CALM 0 6 0 3 1024.0 - 0.0
30/08:15am 11.8 11.9 11.5 98 0.2 N 2 6 1 3 1024.0 - 0.0
30/08:08am 11.4 11.0 11.2 99 0.1 N 4 7 2 4 1024.0 - 0.0
30/08:00am 11.0 10.5 10.8 99 0.1 N 4 7 2 4 1024.0 - 0.0
30/07:30am 9.7 8.9 9.6 99 0.0 N 4 7 2 4 1023.7 - 0.0
30/07:00am 9.2 8.3 9.1 99 0.0 N 4 7 2 4 1023.5 - 0.0
30/06:30am 9.0 7.4 8.9 99 0.0 N 7 9 4 5 1023.3 - 0.0
30/06:00am 8.4 7.2 8.1 98 0.1 N 4 9 2 5 1022.8 1022.8 0.0
30/05:30am 8.3 7.8 8.0 98 0.1 CALM 0 0 0 0 1022.5 - 0.0
30/05:00am 8.1 7.6 7.8 98 0.1 CALM 0 0 0 0 1022.1 - 0.0
30/04:30am 7.9 7.3 7.6 98 0.1 CALM 0 0 0 0 1021.9 - 0.0
30/04:00am 8.0 7.5 7.7 98 0.1 CALM 0 0 0 0 1021.9 - 0.0
30/03:30am 8.2 7.7 7.9 98 0.1 CALM 0 0 0 0 1021.8 - 0.0
30/03:00am 8.2 7.7 7.8 97 0.2 CALM 0 0 0 0 1021.7 1021.7 0.0
30/02:30am 8.2 7.6 7.6 96 0.3 CALM 0 0 0 0 1021.7 - 0.0
30/02:00am 8.2 7.6 7.6 96 0.3 CALM 0 0 0 0 1021.7 - 0.0
30/01:44am 8.2 7.6 7.4 95 0.4 CALM 0 0 0 0 1021.7 - 0.0
30/01:30am 8.3 7.7 7.4 94 0.4 CALM 0 0 0 0 1021.8 - 0.0
30/01:00am 9.4 9.1 8.8 96 0.3 CALM 0 0 0 0 1021.7 - 0.0
30/12:30am 9.8 8.9 9.3 97 0.2 N 4 6 2 3 1021.8 - 0.0
30/12:00am 9.6 8.2 8.8 95 0.4 N 6 7 3 4 1021.8 1021.8 0.0
 
Date/Time
EST
Temp
°C
App
Temp
°C
Dew
Point
Rel
Hum
%
Delta-T
°C
Wind Press
QNH
hPa
Press
MSL
hPa
Rain
since 9 am
mm
Dir
 
Spd
km/h
Gust
km/h
Spd
kts
Gust
kts
29/11:30pm 9.9 8.7 9.4 97 0.2 N 6 6 3 3 1021.7 - 0.0
29/11:00pm 10.1 8.8 9.3 95 0.4 N 6 7 3 4 1021.9 - 0.0
29/10:38pm 10.2 10.0 9.0 92 0.6 CALM 0 0 0 0 1021.8 - 0.0
29/10:35pm 10.0 9.7 8.6 91 0.7 CALM 0 0 0 0 1021.8 - 0.0
29/10:30pm 10.5 10.4 9.4 93 0.5 CALM 0 0 0 0 1021.8 - 0.0
29/10:00pm 10.9 10.9 9.7 92 0.6 CALM 0 0 0 0 1021.7 - 0.0
29/09:41pm 11.3 11.5 10.5 95 0.4 CALM 0 0 0 0 1021.7 - 0.0
29/09:30pm 11.9 12.3 11.1 95 0.4 CALM 0 0 0 0 1021.7 - 0.0
29/09:25pm 11.6 11.8 10.7 94 0.5 CALM 0 6 0 3 1021.7 - 0.0
29/09:06pm 11.5 10.4 10.1 91 0.7 N 6 7 3 4 1021.6 - 0.0
29/09:00pm 11.7 10.7 10.3 91 0.7 N 6 6 3 3 1021.6 1021.6 0.0
29/08:45pm 12.1 11.1 10.3 89 0.9 N 6 7 3 4 1021.6 - 0.0
29/08:30pm 12.7 12.3 11.1 90 0.8 N 4 9 2 5 1021.5 - 0.0
29/08:00pm 12.9 11.5 9.7 81 1.6 N 7 9 4 5 1021.4 - 0.0
29/07:30pm 14.5 13.2 11.3 81 1.7 N 9 11 5 6 1021.1 - 0.0
29/07:00pm 15.6 13.8 11.0 74 2.5 N 11 13 6 7 1020.9 - 0.0
29/06:30pm 16.3 14.9 10.8 70 2.9 N 9 11 5 6 1020.8 - 0.0
29/06:00pm 17.0 15.1 10.6 66 3.4 N 11 13 6 7 1020.4 1020.4 0.0
29/05:30pm 18.0 16.1 10.4 61 4.1 N 11 13 6 7 1020.2 - 0.0
29/05:00pm 19.8 17.1 10.5 55 5.0 NNE 15 19 8 10 1020.1 - 0.0
29/04:30pm 20.9 18.3 10.7 52 5.6 NNE 15 20 8 11 1019.7 - 0.0
29/04:00pm 21.8 18.2 10.6 49 6.1 N 20 26 11 14 1019.3 - 0.0
29/03:30pm 22.9 19.5 10.7 46 6.7 N 19 26 10 14 1019.2 - 0.0
29/03:00pm 23.6 20.3 11.0 45 7.0 N 19 26 10 14 1019.0 1019.0 0.0
29/02:30pm 24.0 22.0 10.3 42 7.6 N 11 22 6 12 1019.1 - 0.0
29/02:00pm 25.3 23.3 8.7 35 9.0 NNW 9 15 5 8 1019.4 - 0.0
29/01:30pm 24.5 22.3 8.0 35 8.8 WNW 9 24 5 13 1019.9 - 0.0
29/01:00pm 23.9 20.0 8.7 38 8.1 N 19 26 10 14 1020.4 - 0.0
29/12:30pm 23.7 21.6 8.2 37 8.2 WNW 9 17 5 9 1020.9 - 0.0
29/12:00pm 23.9 21.0 9.5 40 7.8 NNW 15 26 8 14 1021.4 1021.4 0.0
29/11:30am 23.2 19.9 9.6 42 7.4 NW 17 26 9 14 1022.1 - 0.0
29/11:00am 22.5 18.8 10.3 46 6.7 NW 20 28 11 15 1022.7 - 0.0
29/10:30am 21.9 19.4 11.0 50 6.0 NW 15 24 8 13 1023.0 - 0.0
29/10:00am 20.0 17.5 11.0 56 4.9 NW 15 19 8 10 1023.4 - 0.0
29/09:30am 18.6 17.6 10.9 61 4.2 NW 7 9 4 5 1023.7 - 0.0
29/09:00am 16.0 16.0 9.7 66 3.3 CALM 0 0 0 0 1023.9 1023.9 0.2
29/08:30am 13.3 11.8 8.4 72 2.4 WNW 6 7 3 4 1023.9 - 0.2
29/08:00am 10.9 10.6 8.5 85 1.2 CALM 0 0 0 0 1023.8 - 0.2
29/07:30am 8.1 7.0 7.0 93 0.5 W 2 6 1 3 1023.7 - 0.2
29/07:00am 5.5 3.2 4.8 95 0.3 W 6 6 3 3 1023.3 - 0.2
29/06:30am 4.9 3.6 4.3 96 0.3 CALM 0 7 0 4 1023.0 - 0.2
29/06:00am 5.1 3.9 4.5 96 0.3 CALM 0 0 0 0 1022.6 1022.6 0.2
29/05:30am 5.1 3.9 4.4 95 0.3 CALM 0 0 0 0 1022.1 - 0.2
29/05:00am 5.2 4.0 4.6 96 0.3 CALM 0 0 0 0 1021.9 - 0.2
29/04:30am 5.4 4.2 4.8 96 0.3 CALM 0 0 0 0 1021.7 - 0.2
29/04:00am 5.5 4.3 4.8 95 0.3 CALM 0 0 0 0 1021.6 - 0.2
29/03:30am 5.9 4.8 5.2 95 0.3 CALM 0 0 0 0 1021.6 - 0.2
29/03:00am 6.2 5.1 5.3 94 0.4 CALM 0 0 0 0 1021.6 1021.6 0.2
29/02:30am 6.5 5.5 5.6 94 0.4 CALM 0 0 0 0 1021.7 - 0.2
29/02:00am 6.7 5.7 5.5 92 0.5 CALM 0 0 0 0 1021.8 - 0.2
29/01:30am 7.4 6.5 6.2 92 0.5 CALM 0 0 0 0 1022.0 - 0.2
29/01:00am 6.7 5.6 4.9 88 0.8 CALM 0 0 0 0 1022.1 - 0.2
29/12:30am 7.9 7.0 6.0 88 0.9 CALM 0 0 0 0 1022.3 - 0.2
29/12:00am 7.9 6.1 7.3 96 0.3 ENE 6 7 3 4 1022.3 1022.3 0.2
 
Date/Time
EST
Temp
°C
App
Temp
°C
Dew
Point
Rel
Hum
%
Delta-T
°C
Wind Press
QNH
hPa
Press
MSL
hPa
Rain
since 9 am
mm
Dir
 
Spd
km/h
Gust
km/h
Spd
kts
Gust
kts
28/11:30pm 8.0 5.8 6.3 89 0.8 NE 7 7 4 4 1022.4 - 0.2
28/11:00pm 8.1 7.2 5.9 86 1.0 CALM 0 0 0 0 1022.4 - 0.2
28/10:30pm 9.0 8.2 6.6 85 1.1 CALM 0 0 0 0 1022.5 - 0.2
28/10:00pm 9.3 8.5 6.7 84 1.2 CALM 0 0 0 0 1022.4 - 0.2
28/09:30pm 9.6 9.0 7.2 85 1.1 CALM 0 0 0 0 1022.3 - 0.2
28/09:00pm 9.4 8.6 6.5 82 1.3 CALM 0 0 0 0 1022.2 1022.2 0.2
28/08:30pm 10.6 9.9 7.1 79 1.7 CALM 0 0 0 0 1022.1 - 0.2
28/08:00pm 11.2 10.8 8.1 81 1.5 CALM 0 6 0 3 1021.8 - 0.2
28/07:30pm 12.0 11.3 6.9 71 2.4 CALM 0 0 0 0 1021.7 - 0.2
28/07:00pm 12.6 11.0 6.2 65 3.0 NE 4 6 2 3 1021.5 - 0.2
28/06:30pm 13.9 11.6 7.4 65 3.2 E 9 11 5 6 1021.1 - 0.2
28/06:00pm 15.5 13.1 7.0 57 4.2 NNE 9 11 5 6 1020.6 1020.6 0.2
28/05:30pm 17.4 15.4 6.9 50 5.2 NE 7 9 4 5 1020.6 - 0.2
28/05:00pm 19.4 17.3 6.5 43 6.5 NE 7 11 4 6 1020.4 - 0.2
28/04:30pm 21.0 17.7 6.5 39 7.3 NNE 13 17 7 9 1020.1 - 0.2
28/04:00pm 21.8 17.8 6.5 37 7.8 NE 17 22 9 12 1019.8 - 0.2
28/03:30pm 22.8 19.5 6.6 35 8.3 ENE 13 20 7 11 1019.8 - 0.2
28/03:00pm 23.5 20.8 7.2 35 8.5 ESE 11 20 6 11 1019.8 1019.8 0.2
28/02:30pm 23.6 21.4 6.0 32 9.0 S 7 9 4 5 1020.0 - 0.2
28/02:00pm 23.8 21.1 5.7 31 9.2 WNW 9 17 5 9 1020.3 - 0.2
28/01:30pm 23.4 21.1 5.8 32 8.9 NNW 7 15 4 8 1020.8 - 0.2
28/01:00pm 23.6 20.8 6.8 34 8.7 W 11 17 6 9 1021.3 - 0.2
28/12:30pm - - - - - WSW 7 13 4 7 1021.8 - 0.0
28/12:00pm 22.4 20.9 8.5 41 7.3 NNW 6 17 3 9 1022.5 1022.5 0.0
28/11:41am 22.3 19.8 8.4 41 7.3 WNW 11 20 6 11 1022.8 - 0.0
28/11:30am 22.2 20.3 9.0 43 7.0 NNE 9 22 5 12 1023.1 - 0.0
28/11:23am 21.4 18.9 8.0 42 7.0 N 11 19 6 10 1023.3 - 0.0
28/11:00am 21.7 19.9 9.3 45 6.6 SE 9 13 5 7 1023.5 - 0.0
28/10:30am 20.3 19.3 11.0 55 5.1 S 7 13 4 7 1024.0 - 0.0
28/10:00am 18.9 17.3 10.2 57 4.7 S 9 11 5 6 1024.4 - 0.0
28/09:30am 17.5 16.2 10.1 62 3.9 SW 7 11 4 6 1024.5 - 0.0
28/09:00am 15.8 14.4 9.5 66 3.2 SW 7 11 4 6 1024.5 1024.5 0.0
28/08:30am 13.9 11.8 8.3 69 2.8 SW 9 11 5 6 1024.5 - 0.0
28/08:00am 12.3 9.8 8.4 77 1.9 SW 11 17 6 9 1024.4 - 0.0
28/07:30am 10.7 8.5 7.9 83 1.4 SW 9 13 5 7 1024.1 - 0.0
28/07:00am 8.7 6.8 7.5 92 0.6 SW 7 9 4 5 1023.9 - 0.0
28/06:30am 7.6 5.5 6.5 93 0.5 SW 7 9 4 5 1023.5 - 0.0
28/06:00am 7.7 5.7 7.0 95 0.3 SW 7 11 4 6 1023.3 1023.3 0.0
28/05:38am 7.0 4.8 6.1 94 0.4 SW 7 9 4 5 1023.1 - 0.0
28/05:30am 6.9 4.9 6.2 95 0.3 SW 6 7 3 4 1022.9 - 0.0
28/05:18am 6.7 4.6 5.8 94 0.4 SW 6 7 3 4 1022.8 - 0.0
28/05:00am 6.3 3.9 5.1 92 0.5 SW 7 9 4 5 1022.7 - 0.0
28/04:56am 6.8 4.7 5.9 94 0.4 SW 6 9 3 5 1022.7 - 0.0
28/04:30am 7.2 6.4 6.3 94 0.4 CALM 0 0 0 0 1022.5 - 0.0
28/04:27am 7.2 6.4 6.3 94 0.4 CALM 0 0 0 0 1022.4 - 0.0
28/04:22am 7.2 6.4 6.3 94 0.4 CALM 0 0 0 0 1022.3 - 0.0
28/04:00am 7.2 6.4 6.3 94 0.4 CALM 0 0 0 0 1022.4 - 0.0
28/03:30am 7.8 6.7 6.7 93 0.5 SW 2 7 1 4 1022.3 - 0.0
28/03:09am 8.2 6.2 7.0 92 0.6 SW 7 9 4 5 1022.3 - 0.0
28/03:00am 8.2 6.3 6.7 90 0.7 SW 6 9 3 5 1022.4 1022.4 0.0
28/02:30am 9.6 7.5 8.4 92 0.6 SW 9 9 5 5 1022.5 - 0.0
28/02:00am 9.4 7.8 8.6 95 0.4 SW 7 9 4 5 1022.6 - 0.0
28/01:30am 8.7 6.9 7.8 94 0.4 SW 7 9 4 5 1022.8 - 0.0
28/01:23am 8.7 6.9 7.8 94 0.4 SW 7 9 4 5 1022.9 - 0.0
28/01:12am 8.8 7.2 7.9 94 0.4 SW 6 7 3 4 1023.0 - 0.0
28/01:00am 9.0 7.4 8.1 94 0.4 SW 6 7 3 4 1023.1 - 0.0
28/12:30am 9.3 8.9 8.2 93 0.5 CALM 0 4 0 2 1023.2 - 0.0
28/12:00am 9.4 7.8 8.2 92 0.6 SW 6 7 3 4 1023.3 1023.3 0.0
 
Date/Time
EST
Temp
°C
App
Temp
°C
Dew
Point
Rel
Hum
%
Delta-T
°C
Wind Press
QNH
hPa
Press
MSL
hPa
Rain
since 9 am
mm
Dir
 
Spd
km/h
Gust
km/h
Spd
kts
Gust
kts
27/11:30pm 10.9 10.1 9.5 91 0.7 SW 4 7 2 4 1023.3 - 0.0
27/11:00pm 11.6 10.3 10.0 90 0.8 E 7 9 4 5 1023.4 - 0.0

Other Formats:

Comma delimited format used in spreadsheet applications
http://www.bom.gov.au/fwo/IDQ60801/IDQ60801.94567.axf

JavaScript Object Notation format (JSON) in row-major order
http://www.bom.gov.au/fwo/IDQ60801/IDQ60801.94567.json